Ranchito, Texas
Current Conditions -  °F | °C
As of 11:52 AM on Friday 21 Nov 2014 (Local Time) from KHRL Reporting Station
Overcast Overcast  
Wind Chill: 77°   Ceiling: 3000
Heat Index: 79°   Visibility: 10mi
Dew Point: 68°   Wind: 22mph
Humidity: 74%   Direction: 150°SSE
Pressure: 30.05"   Gusts: 30mph
Location:  26.1784°N, 97.6678°W
Report Text: KHRL 211752Z 15019G26KT 10SM SCT024 BKN030 OVC060 25/20 A3005 RMK AO2 PK WND 15028/1738 SLP176 60003 T02500200 10256 20200 58003
Loading
Personal Weather Stations






























Interactive Weather Map New forecast layout! Learn more

10-Day Weather Forecast

Advertisements
Track Severe Weather on mobile